createdAt,value
2022-10-14T00:00:07.224Z,99.11
2022-10-14T00:00:42.668Z,99.52
2022-10-14T00:01:17.943Z,98.91
2022-10-14T00:01:53.180Z,99.27
2022-10-14T00:02:28.366Z,98.10
2022-10-14T00:03:03.705Z,98.25
2022-10-14T00:03:38.880Z,97.64
2022-10-14T00:04:14.185Z,97.64
2022-10-14T00:04:49.685Z,97.74
2022-10-14T00:05:24.908Z,98.14
2022-10-14T00:06:00.131Z,98.25
2022-10-14T00:06:35.113Z,98.35
2022-10-14T00:07:10.306Z,97.74
2022-10-14T00:07:45.517Z,97.74
2022-10-14T00:08:20.805Z,98.35
2022-10-14T00:08:55.966Z,98.45
2022-10-14T00:09:31.079Z,98.14
2022-10-14T00:10:06.393Z,98.45
2022-10-14T00:10:41.298Z,97.74
2022-10-14T00:11:16.507Z,98.14
2022-10-14T00:11:52.160Z,98.25
2022-10-14T00:12:27.273Z,98.45
2022-10-14T00:13:02.378Z,97.78
2022-10-14T00:13:37.660Z,97.84
2022-10-14T00:14:13.271Z,97.53
2022-10-14T00:14:48.500Z,98.35
2022-10-14T00:15:23.490Z,98.35
2022-10-14T00:15:58.797Z,98.39
2022-10-14T00:16:34.190Z,97.89
2022-10-14T00:17:09.601Z,97.78
2022-10-14T00:17:44.918Z,97.69
2022-10-14T00:18:20.122Z,97.89
2022-10-14T00:18:55.339Z,97.78
2022-10-14T00:19:30.562Z,98.09
2022-10-14T00:20:05.794Z,98.39
2022-10-14T00:20:40.982Z,98.39
2022-10-14T00:21:16.504Z,97.69
2022-10-14T00:21:52.018Z,97.69
2022-10-14T00:22:27.504Z,97.69
2022-10-14T00:23:02.702Z,97.89
2022-10-14T00:23:37.783Z,97.78
2022-10-14T00:24:12.986Z,98.30
2022-10-14T00:24:48.102Z,98.19
2022-10-14T00:25:23.403Z,98.09
2022-10-14T00:25:58.935Z,98.70
2022-10-14T00:26:34.228Z,97.89
2022-10-14T00:27:09.420Z,98.39
2022-10-14T00:27:44.707Z,98.19
2022-10-14T00:28:19.734Z,98.39
2022-10-14T00:28:55.400Z,97.99
2022-10-14T00:29:30.444Z,98.30
2022-10-14T00:30:05.783Z,98.50
2022-10-14T00:30:41.258Z,99.52
2022-10-14T00:31:16.372Z,98.19
2022-10-14T00:31:51.694Z,99.41
2022-10-14T00:32:27.219Z,99.62
2022-10-14T00:33:02.607Z,99.41
2022-10-14T00:33:37.605Z,99.52
2022-10-14T00:34:12.734Z,98.50
2022-10-14T00:34:47.961Z,98.19
2022-10-14T00:35:23.064Z,98.19
2022-10-14T00:35:58.378Z,98.50
2022-10-14T00:36:33.685Z,98.19
2022-10-14T00:37:08.798Z,98.09
2022-10-14T00:37:44.089Z,97.69
2022-10-14T00:38:19.275Z,97.69
2022-10-14T00:38:54.890Z,97.89
2022-10-14T00:39:30.094Z,98.39
2022-10-14T00:40:05.295Z,98.30
2022-10-14T00:40:40.389Z,97.99
2022-10-14T00:41:15.710Z,98.30
2022-10-14T00:41:50.710Z,98.19
2022-10-14T00:42:25.739Z,97.89
2022-10-14T00:43:01.044Z,97.89
2022-10-14T00:43:36.633Z,97.69
2022-10-14T00:44:11.742Z,97.58
2022-10-14T00:44:47.229Z,97.89
2022-10-14T00:45:22.941Z,97.69
2022-10-14T00:45:58.140Z,98.09
2022-10-14T00:46:33.455Z,97.69
2022-10-14T00:47:08.773Z,97.78
2022-10-14T00:47:43.998Z,97.89
2022-10-14T00:48:19.125Z,97.89
2022-10-14T00:48:54.331Z,98.50
2022-10-14T00:49:29.443Z,97.78
2022-10-14T00:50:04.735Z,97.69
2022-10-14T00:50:39.946Z,98.19
2022-10-14T00:51:15.458Z,97.89
2022-10-14T00:51:50.649Z,97.48
2022-10-14T00:52:26.098Z,98.09
2022-10-14T00:53:01.335Z,97.69
2022-10-14T00:53:36.980Z,97.89
2022-10-14T00:54:11.880Z,97.69
2022-10-14T00:54:47.599Z,98.19
2022-10-14T00:55:22.910Z,97.48
2022-10-14T00:55:58.019Z,97.89
2022-10-14T00:56:33.477Z,97.78
2022-10-14T00:57:08.783Z,97.69
2022-10-14T00:57:44.194Z,97.69
2022-10-14T00:58:19.231Z,97.99
2022-10-14T00:58:54.535Z,97.89
2022-10-14T00:59:29.746Z,97.48
2022-10-14T01:00:05.049Z,98.09
2022-10-14T01:00:40.218Z,97.89
2022-10-14T01:01:15.559Z,97.53
2022-10-14T01:01:50.693Z,97.89
2022-10-14T01:02:25.592Z,97.69
2022-10-14T01:03:00.705Z,98.09
2022-10-14T01:03:35.944Z,97.89
2022-10-14T01:04:11.029Z,98.09
2022-10-14T01:04:46.740Z,97.89
2022-10-14T01:05:21.843Z,97.58
2022-10-14T01:05:56.997Z,97.99
2022-10-14T01:06:32.377Z,98.09
2022-10-14T01:07:07.740Z,98.09
2022-10-14T01:07:42.892Z,98.09
2022-10-14T01:08:18.330Z,97.78
2022-10-14T01:08:53.525Z,97.69
2022-10-14T01:09:29.047Z,98.19
2022-10-14T01:10:04.450Z,98.50
2022-10-14T01:10:39.377Z,98.30
2022-10-14T01:11:14.496Z,98.35
2022-10-14T01:12:00.162Z,99.47
2022-10-14T01:12:29.166Z,98.86
2022-10-14T01:12:59.857Z,99.52
2022-10-14T01:13:35.169Z,99.27
2022-10-14T01:14:10.475Z,99.27
2022-10-14T01:14:45.742Z,99.16
2022-10-14T01:15:21.040Z,99.27
2022-10-14T01:15:56.434Z,99.27
2022-10-14T01:16:31.949Z,99.16
2022-10-14T01:17:07.293Z,99.06
2022-10-14T01:17:42.493Z,99.06
2022-10-14T01:18:18.029Z,99.16
2022-10-14T01:18:53.240Z,99.27
2022-10-14T01:19:28.840Z,99.47
2022-10-14T01:20:04.044Z,99.47
2022-10-14T01:20:39.239Z,99.37
2022-10-14T01:21:14.467Z,99.57
2022-10-14T01:21:49.885Z,99.27
2022-10-14T01:22:25.615Z,99.06
2022-10-14T01:23:00.521Z,99.27
2022-10-14T01:23:35.636Z,98.66
2022-10-14T01:24:11.121Z,99.16
2022-10-14T01:24:46.417Z,99.57
2022-10-14T01:25:21.628Z,99.57
2022-10-14T01:25:56.961Z,99.27
2022-10-14T01:26:32.165Z,98.86
2022-10-14T01:27:07.288Z,99.57
2022-10-14T01:27:42.404Z,99.27
2022-10-14T01:28:17.861Z,98.75
2022-10-14T01:28:53.201Z,99.27
2022-10-14T01:29:28.429Z,99.37
2022-10-14T01:30:03.728Z,99.37
2022-10-14T01:30:38.850Z,99.37
2022-10-14T01:31:14.135Z,99.67
2022-10-14T01:31:49.550Z,98.45
2022-10-14T01:32:24.769Z,99.57
2022-10-14T01:33:00.107Z,98.45
2022-10-14T01:33:35.413Z,98.45
2022-10-14T01:34:10.535Z,97.84
2022-10-14T01:34:45.763Z,97.64
2022-10-14T01:35:20.761Z,98.14
2022-10-14T01:35:56.166Z,98.66
2022-10-14T01:36:31.279Z,98.25
2022-10-14T01:37:06.702Z,98.05
2022-10-14T01:37:41.889Z,97.89
2022-10-14T01:38:17.279Z,98.09
2022-10-14T01:38:52.493Z,97.78
2022-10-14T01:39:27.914Z,98.19
2022-10-14T01:40:03.459Z,98.19
2022-10-14T01:40:38.809Z,97.84
2022-10-14T01:41:14.012Z,98.19
2022-10-14T01:41:49.122Z,98.19
2022-10-14T01:42:24.652Z,98.09
2022-10-14T01:43:00.070Z,97.89
2022-10-14T01:43:35.184Z,97.99
2022-10-14T01:44:10.478Z,98.19
2022-10-14T01:44:45.738Z,97.78
2022-10-14T01:45:21.044Z,98.09
2022-10-14T01:45:56.297Z,97.64
2022-10-14T01:46:31.670Z,97.58
2022-10-14T01:47:07.108Z,98.09
2022-10-14T01:47:42.399Z,97.74
2022-10-14T01:48:17.918Z,97.89
2022-10-14T01:48:53.235Z,97.69
2022-10-14T01:49:28.317Z,97.78
2022-10-14T01:50:03.657Z,97.58
2022-10-14T01:50:38.754Z,97.69
2022-10-14T01:51:14.079Z,98.50
2022-10-14T01:51:49.305Z,97.48
2022-10-14T01:52:24.563Z,98.09
2022-10-14T01:52:59.283Z,98.05
2022-10-14T01:53:34.489Z,97.58
2022-10-14T01:54:09.813Z,97.78
2022-10-14T01:54:44.952Z,97.17
2022-10-14T01:55:20.159Z,97.48
2022-10-14T01:55:55.482Z,97.89
2022-10-14T01:56:30.501Z,98.35
2022-10-14T01:57:05.639Z,97.74
2022-10-14T01:57:40.983Z,97.89
2022-10-14T01:58:16.313Z,97.48
2022-10-14T01:58:51.527Z,97.07
2022-10-14T01:59:26.741Z,96.92
2022-10-14T02:00:02.183Z,97.38
2022-10-14T02:00:37.403Z,97.38
2022-10-14T02:01:12.635Z,97.48
2022-10-14T02:01:47.794Z,97.38
2022-10-14T02:02:23.171Z,97.13
2022-10-14T02:02:58.296Z,96.97
2022-10-14T02:03:33.720Z,97.03
2022-10-14T02:04:09.452Z,97.78
2022-10-14T02:04:44.706Z,97.99
2022-10-14T02:05:20.102Z,97.58
2022-10-14T02:05:55.344Z,97.28
2022-10-14T02:06:30.753Z,97.48
2022-10-14T02:07:05.875Z,97.38
2022-10-14T02:07:41.065Z,96.92
2022-10-14T02:08:16.286Z,96.87
2022-10-14T02:08:51.529Z,96.83
2022-10-14T02:09:26.549Z,97.07
2022-10-14T02:10:01.806Z,96.77
2022-10-14T02:10:37.095Z,97.07
2022-10-14T02:11:12.632Z,96.67
2022-10-14T02:11:47.839Z,96.97
2022-10-14T02:12:23.540Z,97.17
2022-10-14T02:12:58.571Z,96.77
2022-10-14T02:13:33.578Z,96.77
2022-10-14T02:14:08.735Z,96.46
2022-10-14T02:14:43.966Z,96.56
2022-10-14T02:15:19.296Z,96.56
2022-10-14T02:15:54.630Z,96.46
2022-10-14T02:16:29.940Z,96.56
2022-10-14T02:17:05.668Z,96.67
2022-10-14T02:17:40.892Z,96.26
2022-10-14T02:18:16.021Z,96.36
2022-10-14T02:18:51.303Z,96.15
2022-10-14T02:19:26.319Z,96.67
2022-10-14T02:20:01.533Z,96.06
2022-10-14T02:20:36.570Z,96.15
2022-10-14T02:21:11.952Z,96.15
2022-10-14T02:21:47.256Z,96.06
2022-10-14T02:22:23.101Z,96.46
2022-10-14T02:22:57.973Z,96.67
2022-10-14T02:23:33.077Z,96.67
2022-10-14T02:24:08.371Z,96.26
2022-10-14T02:24:43.515Z,96.36
2022-10-14T02:25:18.560Z,96.46
2022-10-14T02:25:53.682Z,96.77
2022-10-14T02:26:28.800Z,96.87
2022-10-14T02:27:04.235Z,96.46
2022-10-14T02:27:39.468Z,96.87
2022-10-14T02:28:14.848Z,96.46
2022-10-14T02:28:50.211Z,96.97
2022-10-14T02:29:25.522Z,96.46
2022-10-14T02:30:00.762Z,95.85
2022-10-14T02:30:36.675Z,95.75
2022-10-14T02:31:11.792Z,96.15
2022-10-14T02:31:47.108Z,95.65
2022-10-14T02:32:22.674Z,95.79
2022-10-14T02:32:57.660Z,95.75
2022-10-14T02:33:32.872Z,95.95
2022-10-14T02:34:07.971Z,95.95
2022-10-14T02:34:43.005Z,96.46
2022-10-14T02:35:18.106Z,96.56
2022-10-14T02:35:53.234Z,96.67
2022-10-14T02:36:28.345Z,96.67
2022-10-14T02:37:03.458Z,96.56
2022-10-14T02:37:38.880Z,96.87
2022-10-14T02:38:14.182Z,97.07
2022-10-14T02:38:49.700Z,96.97
2022-10-14T02:39:25.002Z,96.97
2022-10-14T02:40:00.331Z,96.67
2022-10-14T02:40:35.651Z,96.46
2022-10-14T02:41:11.175Z,96.36
2022-10-14T02:41:46.285Z,96.36
2022-10-14T02:42:21.661Z,96.36
2022-10-14T02:42:56.969Z,96.77
2022-10-14T02:43:32.165Z,96.36
2022-10-14T02:44:07.417Z,96.92
2022-10-14T02:44:42.767Z,96.87
2022-10-14T02:45:18.170Z,96.56
2022-10-14T02:45:53.611Z,97.12
2022-10-14T02:46:29.208Z,97.07
2022-10-14T02:47:04.533Z,97.38
2022-10-14T02:47:39.667Z,97.32
2022-10-14T02:48:15.256Z,97.07
2022-10-14T02:48:50.371Z,96.97
2022-10-14T02:49:25.705Z,98.30
2022-10-14T02:50:01.242Z,98.14
2022-10-14T02:50:36.586Z,98.14
2022-10-14T02:51:11.798Z,97.89
2022-10-14T02:51:47.024Z,97.58
2022-10-14T02:52:22.641Z,97.83
2022-10-14T02:52:57.589Z,97.93
2022-10-14T02:53:32.705Z,97.93
2022-10-14T02:54:07.904Z,97.63
2022-10-14T02:54:43.432Z,97.48
2022-10-14T02:55:18.631Z,97.93
2022-10-14T02:55:53.655Z,97.93
2022-10-14T02:56:28.891Z,97.53
2022-10-14T02:57:04.119Z,97.73
2022-10-14T02:57:39.035Z,98.03
2022-10-14T02:58:14.524Z,97.63
2022-10-14T02:58:49.772Z,97.83
2022-10-14T02:59:24.769Z,97.93
2022-10-14T02:59:59.995Z,98.65
2022-10-14T03:00:35.098Z,97.93
2022-10-14T03:01:10.729Z,98.03
2022-10-14T03:01:45.874Z,98.03
2022-10-14T03:02:21.190Z,97.93
2022-10-14T03:02:56.393Z,98.03
2022-10-14T03:03:31.846Z,97.83
2022-10-14T03:04:06.944Z,98.03
2022-10-14T03:04:42.502Z,98.03
2022-10-14T03:05:18.034Z,97.73
2022-10-14T03:05:53.267Z,97.93
2022-10-14T03:06:28.589Z,97.93
2022-10-14T03:07:03.808Z,98.14
2022-10-14T03:07:39.290Z,97.83
2022-10-14T03:08:14.533Z,98.14
2022-10-14T03:08:49.854Z,98.39
2022-10-14T03:09:24.779Z,97.83
2022-10-14T03:10:00.095Z,97.93
2022-10-14T03:10:35.098Z,97.83
2022-10-14T03:11:10.331Z,98.75
2022-10-14T03:11:45.761Z,97.89
2022-10-14T03:12:21.420Z,97.69
2022-10-14T03:12:56.418Z,98.03
2022-10-14T03:13:31.614Z,97.93
2022-10-14T03:14:07.116Z,97.69
2022-10-14T03:14:42.329Z,97.99
2022-10-14T03:15:17.852Z,97.83
2022-10-14T03:15:53.074Z,97.78
2022-10-14T03:16:28.481Z,97.73
2022-10-14T03:17:03.871Z,97.93
2022-10-14T03:17:39.075Z,97.78
2022-10-14T03:18:14.198Z,97.69
2022-10-14T03:18:49.626Z,97.58
2022-10-14T03:19:25.035Z,97.89
2022-10-14T03:20:00.361Z,98.14
2022-10-14T03:20:35.682Z,98.09
2022-10-14T03:21:10.715Z,97.78
2022-10-14T03:21:46.012Z,97.69
2022-10-14T03:22:21.427Z,97.78
2022-10-14T03:22:56.453Z,97.69
2022-10-14T03:23:31.955Z,97.93
2022-10-14T03:24:07.190Z,97.78
2022-10-14T03:24:42.601Z,97.78
2022-10-14T03:25:17.955Z,97.89
2022-10-14T03:25:53.479Z,97.89
2022-10-14T03:26:28.794Z,97.78
2022-10-14T03:27:04.417Z,97.78
2022-10-14T03:27:39.907Z,97.83
2022-10-14T03:28:15.612Z,97.93
2022-10-14T03:28:50.644Z,98.50
2022-10-14T03:29:25.956Z,98.34
2022-10-14T03:30:01.267Z,98.19
2022-10-14T03:30:36.473Z,98.30
2022-10-14T03:31:11.800Z,99.62
2022-10-14T03:31:47.088Z,99.66
2022-10-14T03:32:22.723Z,99.66
2022-10-14T03:32:58.049Z,99.36
2022-10-14T03:33:33.905Z,99.72
2022-10-14T03:34:08.660Z,99.77
2022-10-14T03:34:43.860Z,99.62
2022-10-14T03:35:19.293Z,99.66
2022-10-14T03:35:54.707Z,99.41
2022-10-14T03:36:30.025Z,99.56
2022-10-14T03:37:05.458Z,99.66
2022-10-14T03:37:41.079Z,99.46
2022-10-14T03:38:16.385Z,99.66
2022-10-14T03:38:51.974Z,98.85
2022-10-14T03:39:27.299Z,99.16
2022-10-14T03:40:02.628Z,99.56
2022-10-14T03:40:37.865Z,98.44
2022-10-14T03:41:13.212Z,99.66
2022-10-14T03:41:48.378Z,99.05
2022-10-14T03:42:24.375Z,99.77
2022-10-14T03:42:59.260Z,99.56
2022-10-14T03:43:34.534Z,99.26
2022-10-14T03:44:09.667Z,99.36
2022-10-14T03:44:44.973Z,99.16
2022-10-14T03:45:20.324Z,99.36
2022-10-14T03:45:55.399Z,99.16
2022-10-14T03:46:30.802Z,99.36
2022-10-14T03:47:05.998Z,99.46
2022-10-14T03:47:41.731Z,99.05
2022-10-14T03:48:17.347Z,99.36
2022-10-14T03:48:52.562Z,98.24
2022-10-14T03:49:27.968Z,98.24
2022-10-14T03:50:03.281Z,98.24
2022-10-14T03:50:38.517Z,98.34
2022-10-14T03:51:14.121Z,98.44
2022-10-14T03:51:49.613Z,98.14
2022-10-14T03:52:24.827Z,98.44
2022-10-14T03:53:00.129Z,98.14
2022-10-14T03:53:35.735Z,98.44
2022-10-14T03:54:11.154Z,98.44
2022-10-14T03:54:46.682Z,98.54
2022-10-14T03:55:22.228Z,98.14
2022-10-14T03:55:57.537Z,98.24
2022-10-14T03:56:32.650Z,98.44
2022-10-14T03:57:07.660Z,98.54
2022-10-14T03:57:43.086Z,98.65
2022-10-14T03:58:18.326Z,98.34
2022-10-14T03:58:53.326Z,99.56
2022-10-14T03:59:28.642Z,98.75
2022-10-14T04:00:03.950Z,98.65
2022-10-14T04:00:39.177Z,98.54
2022-10-14T04:01:14.523Z,98.54
2022-10-14T04:01:49.801Z,98.14
2022-10-14T04:02:25.065Z,98.54
2022-10-14T04:03:00.199Z,98.54
2022-10-14T04:03:35.301Z,98.44
2022-10-14T04:04:10.550Z,98.24
2022-10-14T04:04:45.657Z,98.65
2022-10-14T04:05:20.898Z,98.34
2022-10-14T04:05:56.234Z,98.54
2022-10-14T04:06:31.854Z,98.54
2022-10-14T04:07:07.488Z,99.26
2022-10-14T04:07:42.704Z,98.85
2022-10-14T04:08:17.923Z,99.66
2022-10-14T04:08:53.223Z,99.56
2022-10-14T04:09:28.440Z,99.66
2022-10-14T04:10:03.673Z,99.66
2022-10-14T04:10:38.889Z,99.56
2022-10-14T04:11:14.564Z,99.46
2022-10-14T04:11:49.580Z,99.56
2022-10-14T04:12:24.821Z,99.46
2022-10-14T04:13:00.136Z,99.36
2022-10-14T04:13:35.396Z,99.36
2022-10-14T04:14:10.614Z,99.26
2022-10-14T04:14:46.016Z,99.46
2022-10-14T04:15:21.435Z,98.95
2022-10-14T04:15:56.638Z,98.75
2022-10-14T04:16:31.759Z,99.05
2022-10-14T04:17:07.192Z,99.16
2022-10-14T04:17:42.211Z,98.95
2022-10-14T04:18:17.512Z,98.85
2022-10-14T04:18:52.832Z,99.16
2022-10-14T04:19:28.043Z,99.30
2022-10-14T04:20:03.446Z,98.75
2022-10-14T04:20:38.565Z,99.10
2022-10-14T04:21:13.679Z,98.95
2022-10-14T04:21:48.992Z,99.20
2022-10-14T04:22:24.681Z,99.10
2022-10-14T04:22:59.675Z,99.41
2022-10-14T04:23:35.005Z,99.00
2022-10-14T04:24:10.301Z,99.10
2022-10-14T04:24:45.717Z,99.20
2022-10-14T04:25:20.965Z,99.61
2022-10-14T04:25:56.171Z,99.61
2022-10-14T04:26:31.368Z,99.41
2022-10-14T04:27:06.474Z,99.61
2022-10-14T04:27:42.005Z,99.51
2022-10-14T04:28:17.415Z,99.51
2022-10-14T04:28:52.905Z,99.71
2022-10-14T04:29:28.010Z,99.81
2022-10-14T04:30:03.126Z,99.61
2022-10-14T04:30:38.567Z,99.61
2022-10-14T04:31:13.780Z,99.91
2022-10-14T04:31:48.882Z,99.81
2022-10-14T04:32:24.562Z,99.71
2022-10-14T04:32:59.387Z,99.61
2022-10-14T04:33:34.711Z,99.91
2022-10-14T04:34:10.017Z,99.71
2022-10-14T04:34:44.935Z,99.61
2022-10-14T04:35:20.174Z,99.91
2022-10-14T04:35:55.473Z,99.71
2022-10-14T04:36:30.981Z,99.81
2022-10-14T04:37:06.285Z,99.99
2022-10-14T04:37:41.412Z,99.61
2022-10-14T04:38:16.746Z,99.81
2022-10-14T04:38:52.061Z,99.81
2022-10-14T04:39:27.288Z,99.99
2022-10-14T04:40:09.552Z,99.51
2022-10-14T04:40:45.248Z,99.99
2022-10-14T04:41:20.677Z,99.99
2022-10-14T04:41:56.093Z,99.99
2022-10-14T04:42:31.348Z,99.99
2022-10-14T04:43:06.662Z,99.99
2022-10-14T04:43:41.893Z,99.99
2022-10-14T04:44:17.319Z,99.99
2022-10-14T04:44:52.670Z,99.99
2022-10-14T04:45:28.145Z,99.99
2022-10-14T04:46:03.327Z,99.99
2022-10-14T04:46:38.585Z,99.99
2022-10-14T04:47:13.898Z,99.99
2022-10-14T04:47:49.123Z,99.99
2022-10-14T04:48:24.273Z,99.99
2022-10-14T04:48:59.814Z,99.99
2022-10-14T04:49:35.376Z,99.99
2022-10-14T04:50:10.584Z,99.99
2022-10-14T04:50:45.834Z,99.99
2022-10-14T04:51:20.968Z,99.99
2022-10-14T04:51:56.613Z,99.99
2022-10-14T04:52:31.648Z,99.99
2022-10-14T04:53:10.611Z,99.99
2022-10-14T04:53:42.636Z,99.99
2022-10-14T04:54:17.834Z,99.91
2022-10-14T04:54:53.057Z,99.77
2022-10-14T04:55:28.295Z,99.46
2022-10-14T04:56:03.746Z,99.99
2022-10-14T04:56:38.891Z,99.87
2022-10-14T04:57:14.218Z,99.66
2022-10-14T04:57:49.725Z,99.77
2022-10-14T04:58:24.928Z,99.77
2022-10-14T04:59:00.364Z,99.77
2022-10-14T04:59:35.520Z,99.46
2022-10-14T05:00:10.894Z,99.99
2022-10-14T05:00:45.902Z,99.99
2022-10-14T05:01:21.289Z,99.99
2022-10-14T05:01:56.645Z,99.99
2022-10-14T05:02:31.552Z,99.99
2022-10-14T05:03:07.008Z,99.99
2022-10-14T05:03:42.430Z,99.56
2022-10-14T05:04:17.704Z,99.97
2022-10-14T05:04:52.988Z,99.77
2022-10-14T05:05:28.142Z,99.87
2022-10-14T05:06:03.499Z,99.66
2022-10-14T05:06:38.669Z,99.77
2022-10-14T05:07:13.833Z,99.87
2022-10-14T05:07:49.138Z,99.46
2022-10-14T05:08:24.626Z,99.46
2022-10-14T05:08:59.818Z,99.46
2022-10-14T05:09:35.171Z,99.77
2022-10-14T05:10:10.400Z,99.66
2022-10-14T05:10:45.728Z,99.87
2022-10-14T05:11:20.870Z,99.87
2022-10-14T05:11:56.410Z,99.87
2022-10-14T05:12:31.954Z,99.66
2022-10-14T05:13:07.207Z,99.87
2022-10-14T05:13:42.548Z,99.56
2022-10-14T05:14:17.967Z,99.46
2022-10-14T05:14:53.314Z,99.77
2022-10-14T05:15:28.556Z,99.56
2022-10-14T05:16:03.922Z,99.46
2022-10-14T05:16:39.248Z,99.46
2022-10-14T05:17:14.282Z,99.26
2022-10-14T05:17:49.526Z,99.66
2022-10-14T05:18:24.899Z,99.05
2022-10-14T05:19:00.182Z,99.77
2022-10-14T05:19:35.211Z,99.36
2022-10-14T05:20:10.497Z,99.36
2022-10-14T05:20:45.621Z,99.46
2022-10-14T05:21:21.067Z,99.56
2022-10-14T05:21:56.508Z,99.77
2022-10-14T05:22:31.621Z,99.56
2022-10-14T05:23:07.275Z,99.97
2022-10-14T05:23:42.392Z,99.81
2022-10-14T05:24:17.406Z,99.61
2022-10-14T05:24:53.218Z,99.46
2022-10-14T05:25:28.433Z,99.66
2022-10-14T05:26:03.762Z,99.87
2022-10-14T05:26:38.775Z,99.46
2022-10-14T05:27:14.194Z,99.66
2022-10-14T05:27:49.345Z,99.99
2022-10-14T05:28:24.751Z,99.87
2022-10-14T05:29:00.278Z,99.99
2022-10-14T05:29:35.553Z,99.99
2022-10-14T05:30:11.078Z,99.99
2022-10-14T05:30:46.423Z,99.99
2022-10-14T05:31:21.261Z,99.99
2022-10-14T05:31:56.637Z,99.99
2022-10-14T05:32:31.773Z,99.99
2022-10-14T05:33:07.004Z,99.99
2022-10-14T05:33:42.237Z,99.99
2022-10-14T05:34:17.262Z,99.99
2022-10-14T05:34:52.474Z,99.99
2022-10-14T05:35:53.701Z,99.99
2022-10-14T05:36:02.823Z,99.99
2022-10-14T05:36:37.938Z,99.99
2022-10-14T05:37:12.996Z,99.99
2022-10-14T05:37:48.314Z,99.77
2022-10-14T05:38:23.649Z,99.77
2022-10-14T05:38:58.799Z,99.46
2022-10-14T05:39:34.313Z,99.66
2022-10-14T05:40:09.442Z,99.56
2022-10-14T05:40:44.557Z,99.99
2022-10-14T05:41:19.903Z,99.77
2022-10-14T05:41:55.249Z,99.99
2022-10-14T05:42:30.430Z,99.87
2022-10-14T05:43:05.896Z,99.87
2022-10-14T05:43:41.103Z,99.56
2022-10-14T05:44:16.657Z,99.66
2022-10-14T05:44:51.827Z,99.99
2022-10-14T05:45:27.314Z,99.77
2022-10-14T05:46:02.391Z,99.77
2022-10-14T05:46:37.591Z,99.87
2022-10-14T05:47:12.859Z,99.99
2022-10-14T05:47:47.963Z,99.66
2022-10-14T05:48:23.760Z,99.56
2022-10-14T05:48:59.016Z,99.87
2022-10-14T05:49:34.433Z,99.66
2022-10-14T05:50:09.665Z,99.56
2022-10-14T05:50:44.810Z,99.87
2022-10-14T05:51:20.348Z,99.66
2022-10-14T05:51:55.619Z,99.46
2022-10-14T05:52:34.050Z,99.77
2022-10-14T05:53:05.964Z,99.77
2022-10-14T05:53:40.967Z,99.97
2022-10-14T05:54:16.200Z,99.99
2022-10-14T05:54:51.524Z,99.99
2022-10-14T05:55:26.989Z,99.99
2022-10-14T05:56:02.409Z,99.46
2022-10-14T05:56:37.643Z,99.97
2022-10-14T05:57:12.799Z,99.77
2022-10-14T05:57:47.927Z,99.77
2022-10-14T05:58:23.667Z,99.56
2022-10-14T05:58:58.742Z,99.97
2022-10-14T05:59:34.012Z,99.46
2022-10-14T06:00:09.635Z,99.66
2022-10-14T06:00:45.247Z,99.66
2022-10-14T06:01:20.757Z,99.87
2022-10-14T06:01:56.205Z,99.56
2022-10-14T06:02:31.452Z,99.77
2022-10-14T06:03:06.890Z,99.99
2022-10-14T06:03:41.937Z,99.99
2022-10-14T06:04:17.616Z,99.99
2022-10-14T06:04:52.820Z,99.99
2022-10-14T06:05:28.036Z,99.99
2022-10-14T06:06:03.179Z,99.99
2022-10-14T06:06:38.588Z,99.99
2022-10-14T06:07:13.704Z,99.99
2022-10-14T06:07:48.730Z,99.99
2022-10-14T06:08:24.103Z,99.99
2022-10-14T06:08:59.716Z,99.99
2022-10-14T06:09:35.384Z,99.99
2022-10-14T06:10:10.765Z,99.99
2022-10-14T06:10:46.178Z,99.99
2022-10-14T06:11:21.438Z,99.99
2022-10-14T06:11:56.795Z,99.99
2022-10-14T06:12:31.919Z,99.99
2022-10-14T06:13:07.089Z,99.99
2022-10-14T06:13:42.398Z,99.99
2022-10-14T06:14:18.064Z,99.99
2022-10-14T06:14:53.649Z,99.99
2022-10-14T06:15:29.396Z,99.99
2022-10-14T06:16:04.833Z,99.99
2022-10-14T06:16:40.239Z,99.99
2022-10-14T06:17:17.469Z,99.99
2022-10-14T06:17:50.653Z,99.99
2022-10-14T06:18:25.934Z,99.99
2022-10-14T06:19:01.475Z,99.99
2022-10-14T06:19:36.677Z,99.99
2022-10-14T06:20:12.051Z,99.99
2022-10-14T06:20:47.309Z,99.99
2022-10-14T06:21:22.740Z,99.99
2022-10-14T06:21:58.063Z,99.99
2022-10-14T06:22:33.445Z,99.99
2022-10-14T06:23:08.472Z,99.99
2022-10-14T06:23:43.674Z,99.99
2022-10-14T06:24:19.142Z,99.99
2022-10-14T06:24:54.466Z,99.99
2022-10-14T06:25:29.785Z,99.99
2022-10-14T06:26:05.013Z,99.99
2022-10-14T06:26:40.284Z,99.99
2022-10-14T06:27:15.400Z,99.99
2022-10-14T06:27:50.828Z,99.99
2022-10-14T06:28:26.380Z,99.99
2022-10-14T06:29:01.515Z,99.99
2022-10-14T06:29:36.683Z,99.99
2022-10-14T06:30:11.809Z,99.99
2022-10-14T06:30:47.011Z,99.99
2022-10-14T06:31:22.213Z,99.99
2022-10-14T06:31:57.528Z,99.99
2022-10-14T06:32:32.573Z,99.99
2022-10-14T06:33:07.683Z,99.99
2022-10-14T06:33:42.952Z,99.99
2022-10-14T06:34:17.983Z,99.99
2022-10-14T06:34:53.166Z,99.99
2022-10-14T06:35:28.666Z,99.99
2022-10-14T06:36:03.866Z,99.99
2022-10-14T06:36:39.308Z,99.99
2022-10-14T06:37:14.517Z,99.99
2022-10-14T06:37:49.757Z,99.99
2022-10-14T06:38:25.443Z,99.99
2022-10-14T06:39:00.774Z,99.99
2022-10-14T06:39:36.245Z,99.99
2022-10-14T06:40:11.352Z,99.99
2022-10-14T06:40:46.850Z,99.99
2022-10-14T06:41:21.900Z,99.99
2022-10-14T06:41:57.237Z,99.99
2022-10-14T06:42:32.670Z,99.99
2022-10-14T06:43:08.026Z,99.99
2022-10-14T06:43:43.261Z,99.99
2022-10-14T06:44:18.351Z,99.99
2022-10-14T06:44:53.523Z,99.99
2022-10-14T06:45:29.016Z,99.99
2022-10-14T06:46:04.244Z,99.99
2022-10-14T06:46:39.491Z,99.99
2022-10-14T06:47:14.810Z,99.99
2022-10-14T06:47:49.957Z,99.99
2022-10-14T06:48:25.493Z,99.99
2022-10-14T06:49:00.802Z,99.99
2022-10-14T06:49:35.934Z,99.99
2022-10-14T06:50:11.127Z,99.99
2022-10-14T06:50:46.264Z,99.99
2022-10-14T06:51:21.679Z,99.99
2022-10-14T06:51:56.884Z,99.99
2022-10-14T06:52:32.233Z,99.99
2022-10-14T06:53:07.484Z,99.99
2022-10-14T06:53:42.615Z,99.99
2022-10-14T06:54:18.045Z,99.99
2022-10-14T06:54:53.486Z,99.99
2022-10-14T06:55:28.820Z,99.99
2022-10-14T06:56:04.164Z,99.99
2022-10-14T06:56:39.286Z,99.99
2022-10-14T06:57:14.729Z,99.99
2022-10-14T06:57:50.171Z,99.99
2022-10-14T06:58:25.773Z,99.99
2022-10-14T06:59:00.905Z,99.99
2022-10-14T06:59:36.354Z,99.99
2022-10-14T07:00:11.463Z,99.99
2022-10-14T07:00:48.253Z,99.99
2022-10-14T07:01:21.977Z,99.99
2022-10-14T07:01:57.291Z,99.99
2022-10-14T07:02:32.478Z,99.99
2022-10-14T07:03:07.941Z,99.99
2022-10-14T07:03:43.786Z,99.99
2022-10-14T07:04:18.856Z,99.99
2022-10-14T07:04:54.188Z,99.99
2022-10-14T07:05:29.605Z,99.99
2022-10-14T07:06:04.949Z,99.99
2022-10-14T07:06:40.584Z,99.99
2022-10-14T07:07:15.742Z,99.99
2022-10-14T07:07:51.515Z,99.99
2022-10-14T07:08:27.100Z,99.99
2022-10-14T07:09:02.342Z,99.99
2022-10-14T07:09:37.573Z,99.99
2022-10-14T07:10:12.908Z,99.99
2022-10-14T07:10:48.149Z,99.99
2022-10-14T07:11:23.255Z,99.99
2022-10-14T07:11:58.305Z,99.99
2022-10-14T07:12:33.566Z,99.99
2022-10-14T07:13:08.793Z,99.99
2022-10-14T07:13:44.032Z,99.99
2022-10-14T07:14:19.156Z,99.99
2022-10-14T07:14:54.524Z,99.99
2022-10-14T07:15:33.730Z,99.99
2022-10-14T07:16:04.796Z,99.99
2022-10-14T07:16:40.067Z,99.99
2022-10-14T07:17:15.591Z,99.99
2022-10-14T07:17:51.055Z,99.99
2022-10-14T07:18:26.416Z,99.99
2022-10-14T07:19:01.814Z,99.99
2022-10-14T07:19:37.148Z,99.99
2022-10-14T07:20:12.868Z,99.99
2022-10-14T07:20:48.271Z,99.99
2022-10-14T07:21:23.587Z,99.99
2022-10-14T07:21:58.897Z,99.99
2022-10-14T07:22:38.311Z,99.99
2022-10-14T07:23:09.129Z,99.99
2022-10-14T07:23:44.496Z,99.99
2022-10-14T07:24:19.777Z,99.99
2022-10-14T07:24:55.009Z,99.99
2022-10-14T07:25:30.230Z,99.99
2022-10-14T07:26:05.523Z,99.99
2022-10-14T07:26:40.919Z,99.99
2022-10-14T07:27:16.056Z,99.99
2022-10-14T07:27:51.259Z,99.99
2022-10-14T07:28:26.464Z,99.99
2022-10-14T07:29:01.646Z,99.99
2022-10-14T07:29:36.942Z,99.99
2022-10-14T07:30:13.937Z,99.99
2022-10-14T07:30:47.500Z,99.99
2022-10-14T07:31:22.846Z,99.99
2022-10-14T07:31:58.067Z,99.99
2022-10-14T07:32:33.507Z,99.99
2022-10-14T07:33:08.925Z,99.99
2022-10-14T07:33:44.336Z,99.99
2022-10-14T07:34:19.699Z,99.99